sensor_id;sensor_type;location;lat;lon;timestamp;P1;durP1;ratioP1;P2;durP2;ratioP2
42700;SDS011;28316;49.504;8.526;2023-03-31T00:01:34;4.82;;;0.82;;
42700;SDS011;28316;49.504;8.526;2023-03-31T00:04:06;4.10;;;0.73;;
42700;SDS011;28316;49.504;8.526;2023-03-31T00:06:36;1.35;;;0.60;;
42700;SDS011;28316;49.504;8.526;2023-03-31T00:09:06;3.08;;;0.75;;
42700;SDS011;28316;49.504;8.526;2023-03-31T00:11:38;1.63;;;0.55;;
42700;SDS011;28316;49.504;8.526;2023-03-31T00:14:05;3.45;;;0.98;;
42700;SDS011;28316;49.504;8.526;2023-03-31T00:16:36;0.70;;;0.30;;
42700;SDS011;28316;49.504;8.526;2023-03-31T00:19:03;0.47;;;0.40;;
42700;SDS011;28316;49.504;8.526;2023-03-31T00:21:30;1.42;;;0.77;;
42700;SDS011;28316;49.504;8.526;2023-03-31T00:24:07;0.47;;;0.22;;
42700;SDS011;28316;49.504;8.526;2023-03-31T00:26:35;0.63;;;0.25;;
42700;SDS011;28316;49.504;8.526;2023-03-31T00:29:03;2.92;;;0.70;;
42700;SDS011;28316;49.504;8.526;2023-03-31T00:31:30;0.55;;;0.45;;
42700;SDS011;28316;49.504;8.526;2023-03-31T00:33:57;3.13;;;0.95;;
42700;SDS011;28316;49.504;8.526;2023-03-31T00:36:23;1.40;;;0.50;;
42700;SDS011;28316;49.504;8.526;2023-03-31T00:38:53;1.55;;;0.65;;
42700;SDS011;28316;49.504;8.526;2023-03-31T00:41:23;2.17;;;0.55;;
42700;SDS011;28316;49.504;8.526;2023-03-31T00:44:04;1.63;;;0.50;;
42700;SDS011;28316;49.504;8.526;2023-03-31T00:46:53;1.70;;;0.45;;
42700;SDS011;28316;49.504;8.526;2023-03-31T00:49:44;4.32;;;1.00;;
42700;SDS011;28316;49.504;8.526;2023-03-31T00:52:21;0.80;;;0.35;;
42700;SDS011;28316;49.504;8.526;2023-03-31T00:55:03;2.03;;;0.75;;
42700;SDS011;28316;49.504;8.526;2023-03-31T00:57:35;9.43;;;1.02;;
42700;SDS011;28316;49.504;8.526;2023-03-31T01:00:05;5.55;;;0.90;;
42700;SDS011;28316;49.504;8.526;2023-03-31T01:02:39;1.75;;;0.68;;
42700;SDS011;28316;49.504;8.526;2023-03-31T01:05:19;0.90;;;0.60;;
42700;SDS011;28316;49.504;8.526;2023-03-31T01:07:52;1.02;;;0.43;;
42700;SDS011;28316;49.504;8.526;2023-03-31T01:10:19;2.55;;;1.02;;
42700;SDS011;28316;49.504;8.526;2023-03-31T01:12:47;1.13;;;0.77;;
42700;SDS011;28316;49.504;8.526;2023-03-31T01:15:18;2.85;;;0.68;;
42700;SDS011;28316;49.504;8.526;2023-03-31T01:17:44;1.02;;;0.50;;
42700;SDS011;28316;49.504;8.526;2023-03-31T01:20:28;2.25;;;0.95;;
42700;SDS011;28316;49.504;8.526;2023-03-31T01:26:42;0.65;;;0.50;;
42700;SDS011;28316;49.504;8.526;2023-03-31T01:35:35;3.42;;;1.13;;
42700;SDS011;28316;49.504;8.526;2023-03-31T01:48:00;3.22;;;0.40;;
42700;SDS011;28316;49.504;8.526;2023-03-31T01:50:55;3.95;;;1.05;;
42700;SDS011;28316;49.504;8.526;2023-03-31T01:53:33;2.78;;;1.02;;
42700;SDS011;28316;49.504;8.526;2023-03-31T01:56:15;1.25;;;0.57;;
42700;SDS011;28316;49.504;8.526;2023-03-31T01:58:58;1.75;;;0.55;;
42700;SDS011;28316;49.504;8.526;2023-03-31T02:01:36;3.53;;;0.63;;
42700;SDS011;28316;49.504;8.526;2023-03-31T02:04:17;6.80;;;0.98;;
42700;SDS011;28316;49.504;8.526;2023-03-31T02:07:15;2.05;;;0.52;;
42700;SDS011;28316;49.504;8.526;2023-03-31T02:09:55;1.13;;;0.40;;
42700;SDS011;28316;49.504;8.526;2023-03-31T02:14:53;2.45;;;0.55;;
42700;SDS011;28316;49.504;8.526;2023-03-31T02:17:23;4.25;;;0.43;;
42700;SDS011;28316;49.504;8.526;2023-03-31T02:20:09;1.95;;;0.82;;
42700;SDS011;28316;49.504;8.526;2023-03-31T02:22:42;2.53;;;1.00;;
42700;SDS011;28316;49.504;8.526;2023-03-31T02:25:13;4.53;;;0.68;;
42700;SDS011;28316;49.504;8.526;2023-03-31T02:27:45;5.43;;;0.70;;
42700;SDS011;28316;49.504;8.526;2023-03-31T02:30:20;0.52;;;0.30;;
42700;SDS011;28316;49.504;8.526;2023-03-31T02:32:46;1.27;;;0.30;;
42700;SDS011;28316;49.504;8.526;2023-03-31T02:35:14;8.30;;;0.90;;
42700;SDS011;28316;49.504;8.526;2023-03-31T02:37:43;1.17;;;0.38;;
42700;SDS011;28316;49.504;8.526;2023-03-31T02:40:11;2.50;;;0.75;;
42700;SDS011;28316;49.504;8.526;2023-03-31T02:42:45;2.50;;;0.47;;
42700;SDS011;28316;49.504;8.526;2023-03-31T02:48:19;1.20;;;0.40;;
42700;SDS011;28316;49.504;8.526;2023-03-31T02:51:12;3.83;;;0.80;;
42700;SDS011;28316;49.504;8.526;2023-03-31T02:56:57;3.72;;;0.75;;
42700;SDS011;28316;49.504;8.526;2023-03-31T03:11:26;2.30;;;0.70;;
42700;SDS011;28316;49.504;8.526;2023-03-31T03:16:46;7.93;;;0.98;;
42700;SDS011;28316;49.504;8.526;2023-03-31T03:19:20;4.57;;;1.17;;
42700;SDS011;28316;49.504;8.526;2023-03-31T03:21:47;0.45;;;0.30;;
42700;SDS011;28316;49.504;8.526;2023-03-31T03:24:14;0.80;;;0.45;;
42700;SDS011;28316;49.504;8.526;2023-03-31T03:26:42;1.83;;;0.60;;
42700;SDS011;28316;49.504;8.526;2023-03-31T03:29:09;1.30;;;0.73;;
42700;SDS011;28316;49.504;8.526;2023-03-31T03:31:39;1.10;;;0.75;;
42700;SDS011;28316;49.504;8.526;2023-03-31T03:34:05;4.35;;;1.40;;
42700;SDS011;28316;49.504;8.526;2023-03-31T03:36:33;3.10;;;0.60;;
42700;SDS011;28316;49.504;8.526;2023-03-31T03:39:01;2.78;;;0.57;;
42700;SDS011;28316;49.504;8.526;2023-03-31T03:41:28;1.30;;;0.57;;
42700;SDS011;28316;49.504;8.526;2023-03-31T03:43:55;2.92;;;0.75;;
42700;SDS011;28316;49.504;8.526;2023-03-31T03:46:21;4.32;;;0.55;;
42700;SDS011;28316;49.504;8.526;2023-03-31T03:48:47;1.88;;;0.35;;
42700;SDS011;28316;49.504;8.526;2023-03-31T03:51:12;3.25;;;0.40;;
42700;SDS011;28316;49.504;8.526;2023-03-31T03:53:38;5.05;;;0.95;;
42700;SDS011;28316;49.504;8.526;2023-03-31T03:56:04;2.40;;;0.60;;
42700;SDS011;28316;49.504;8.526;2023-03-31T03:58:30;1.35;;;0.13;;
42700;SDS011;28316;49.504;8.526;2023-03-31T04:00:56;0.85;;;0.30;;
42700;SDS011;28316;49.504;8.526;2023-03-31T04:03:21;5.65;;;1.23;;
42700;SDS011;28316;49.504;8.526;2023-03-31T04:05:47;1.48;;;0.57;;
42700;SDS011;28316;49.504;8.526;2023-03-31T04:08:14;1.90;;;0.43;;
42700;SDS011;28316;49.504;8.526;2023-03-31T04:10:43;0.77;;;0.25;;
42700;SDS011;28316;49.504;8.526;2023-03-31T04:13:13;2.97;;;1.45;;
42700;SDS011;28316;49.504;8.526;2023-03-31T04:15:40;1.05;;;0.57;;
42700;SDS011;28316;49.504;8.526;2023-03-31T04:18:06;0.90;;;0.47;;
42700;SDS011;28316;49.504;8.526;2023-03-31T04:20:35;5.32;;;0.75;;
42700;SDS011;28316;49.504;8.526;2023-03-31T04:23:02;2.05;;;0.55;;
42700;SDS011;28316;49.504;8.526;2023-03-31T04:25:33;6.13;;;0.75;;
42700;SDS011;28316;49.504;8.526;2023-03-31T04:28:02;0.40;;;0.28;;
42700;SDS011;28316;49.504;8.526;2023-03-31T04:30:31;0.35;;;0.32;;
42700;SDS011;28316;49.504;8.526;2023-03-31T04:32:58;8.57;;;1.92;;
42700;SDS011;28316;49.504;8.526;2023-03-31T04:35:28;2.40;;;0.75;;
42700;SDS011;28316;49.504;8.526;2023-03-31T04:38:17;1.60;;;0.63;;
42700;SDS011;28316;49.504;8.526;2023-03-31T04:40:49;1.33;;;0.45;;
42700;SDS011;28316;49.504;8.526;2023-03-31T04:43:17;0.68;;;0.30;;
42700;SDS011;28316;49.504;8.526;2023-03-31T04:45:45;3.60;;;0.70;;
42700;SDS011;28316;49.504;8.526;2023-03-31T04:48:11;13.23;;;0.70;;
42700;SDS011;28316;49.504;8.526;2023-03-31T04:50:37;2.15;;;0.57;;
42700;SDS011;28316;49.504;8.526;2023-03-31T04:53:03;1.63;;;0.90;;
42700;SDS011;28316;49.504;8.526;2023-03-31T04:55:29;1.13;;;0.52;;
42700;SDS011;28316;49.504;8.526;2023-03-31T04:57:56;2.83;;;0.60;;
42700;SDS011;28316;49.504;8.526;2023-03-31T05:00:22;6.28;;;1.10;;
42700;SDS011;28316;49.504;8.526;2023-03-31T05:02:48;2.08;;;0.70;;
42700;SDS011;28316;49.504;8.526;2023-03-31T05:05:13;3.40;;;0.95;;
42700;SDS011;28316;49.504;8.526;2023-03-31T05:07:39;6.85;;;0.50;;
42700;SDS011;28316;49.504;8.526;2023-03-31T05:10:05;0.95;;;0.65;;
42700;SDS011;28316;49.504;8.526;2023-03-31T05:12:35;1.75;;;0.82;;
42700;SDS011;28316;49.504;8.526;2023-03-31T05:15:02;5.80;;;1.40;;
42700;SDS011;28316;49.504;8.526;2023-03-31T05:17:30;2.63;;;0.68;;
42700;SDS011;28316;49.504;8.526;2023-03-31T05:19:57;0.88;;;0.40;;
42700;SDS011;28316;49.504;8.526;2023-03-31T05:22:24;6.30;;;0.85;;
42700;SDS011;28316;49.504;8.526;2023-03-31T05:24:50;5.68;;;1.27;;
42700;SDS011;28316;49.504;8.526;2023-03-31T05:27:16;3.90;;;0.93;;
42700;SDS011;28316;49.504;8.526;2023-03-31T05:29:42;1.17;;;0.47;;
42700;SDS011;28316;49.504;8.526;2023-03-31T05:32:08;2.53;;;0.80;;
42700;SDS011;28316;49.504;8.526;2023-03-31T05:34:34;3.40;;;1.50;;
42700;SDS011;28316;49.504;8.526;2023-03-31T05:37:00;2.88;;;1.20;;
42700;SDS011;28316;49.504;8.526;2023-03-31T05:39:26;3.30;;;0.88;;
42700;SDS011;28316;49.504;8.526;2023-03-31T05:41:57;0.88;;;0.60;;
42700;SDS011;28316;49.504;8.526;2023-03-31T05:44:26;4.93;;;0.80;;
42700;SDS011;28316;49.504;8.526;2023-03-31T05:46:52;3.50;;;1.15;;
42700;SDS011;28316;49.504;8.526;2023-03-31T05:49:18;15.55;;;1.60;;
42700;SDS011;28316;49.504;8.526;2023-03-31T05:51:44;4.45;;;1.20;;
42700;SDS011;28316;49.504;8.526;2023-03-31T05:54:10;0.70;;;0.70;;
42700;SDS011;28316;49.504;8.526;2023-03-31T05:56:37;3.00;;;1.00;;
42700;SDS011;28316;49.504;8.526;2023-03-31T05:59:02;4.68;;;0.70;;
42700;SDS011;28316;49.504;8.526;2023-03-31T06:01:28;7.65;;;2.05;;
42700;SDS011;28316;49.504;8.526;2023-03-31T06:03:54;5.82;;;1.58;;
42700;SDS011;28316;49.504;8.526;2023-03-31T06:06:20;3.28;;;1.33;;
42700;SDS011;28316;49.504;8.526;2023-03-31T06:08:47;5.97;;;1.85;;
42700;SDS011;28316;49.504;8.526;2023-03-31T06:11:14;2.78;;;1.70;;
42700;SDS011;28316;49.504;8.526;2023-03-31T06:13:45;4.85;;;1.83;;
42700;SDS011;28316;49.504;8.526;2023-03-31T06:16:12;1.67;;;0.88;;
42700;SDS011;28316;49.504;8.526;2023-03-31T06:18:40;2.80;;;0.95;;
42700;SDS011;28316;49.504;8.526;2023-03-31T06:21:07;13.73;;;1.42;;
42700;SDS011;28316;49.504;8.526;2023-03-31T06:23:37;9.38;;;1.75;;
42700;SDS011;28316;49.504;8.526;2023-03-31T06:26:04;7.50;;;1.55;;
42700;SDS011;28316;49.504;8.526;2023-03-31T06:28:32;4.93;;;1.20;;
42700;SDS011;28316;49.504;8.526;2023-03-31T06:31:00;6.72;;;1.50;;
42700;SDS011;28316;49.504;8.526;2023-03-31T06:33:30;4.85;;;1.15;;
42700;SDS011;28316;49.504;8.526;2023-03-31T06:35:57;7.82;;;2.75;;
42700;SDS011;28316;49.504;8.526;2023-03-31T06:38:25;3.75;;;1.80;;
42700;SDS011;28316;49.504;8.526;2023-03-31T06:40:52;1.65;;;0.98;;
42700;SDS011;28316;49.504;8.526;2023-03-31T06:43:18;1.90;;;0.90;;
42700;SDS011;28316;49.504;8.526;2023-03-31T06:45:44;7.07;;;1.42;;
42700;SDS011;28316;49.504;8.526;2023-03-31T06:48:11;1.48;;;1.05;;
42700;SDS011;28316;49.504;8.526;2023-03-31T06:50:37;8.63;;;2.92;;
42700;SDS011;28316;49.504;8.526;2023-03-31T06:53:04;7.45;;;1.65;;
42700;SDS011;28316;49.504;8.526;2023-03-31T06:55:29;6.45;;;1.67;;
42700;SDS011;28316;49.504;8.526;2023-03-31T06:57:57;7.00;;;2.38;;
42700;SDS011;28316;49.504;8.526;2023-03-31T07:00:24;2.47;;;1.38;;
42700;SDS011;28316;49.504;8.526;2023-03-31T07:02:51;5.03;;;2.47;;
42700;SDS011;28316;49.504;8.526;2023-03-31T07:05:17;3.95;;;1.25;;
42700;SDS011;28316;49.504;8.526;2023-03-31T07:07:50;8.10;;;2.00;;
42700;SDS011;28316;49.504;8.526;2023-03-31T07:10:17;3.15;;;1.80;;
42700;SDS011;28316;49.504;8.526;2023-03-31T07:12:43;4.90;;;1.80;;
42700;SDS011;28316;49.504;8.526;2023-03-31T07:15:09;3.70;;;1.67;;
42700;SDS011;28316;49.504;8.526;2023-03-31T07:17:35;6.93;;;1.85;;
42700;SDS011;28316;49.504;8.526;2023-03-31T07:20:09;3.83;;;2.38;;
42700;SDS011;28316;49.504;8.526;2023-03-31T07:22:39;4.30;;;2.40;;
42700;SDS011;28316;49.504;8.526;2023-03-31T07:25:06;14.30;;;2.00;;
42700;SDS011;28316;49.504;8.526;2023-03-31T07:27:35;5.78;;;2.38;;
42700;SDS011;28316;49.504;8.526;2023-03-31T07:30:02;2.75;;;1.27;;
42700;SDS011;28316;49.504;8.526;2023-03-31T07:32:34;8.77;;;2.80;;
42700;SDS011;28316;49.504;8.526;2023-03-31T07:35:04;4.65;;;2.00;;
42700;SDS011;28316;49.504;8.526;2023-03-31T07:37:37;2.05;;;1.45;;
42700;SDS011;28316;49.504;8.526;2023-03-31T07:40:08;3.60;;;2.08;;
42700;SDS011;28316;49.504;8.526;2023-03-31T07:42:47;7.75;;;2.97;;
42700;SDS011;28316;49.504;8.526;2023-03-31T07:45:14;9.80;;;2.90;;
42700;SDS011;28316;49.504;8.526;2023-03-31T07:47:41;5.72;;;2.13;;
42700;SDS011;28316;49.504;8.526;2023-03-31T07:50:08;4.10;;;1.75;;
42700;SDS011;28316;49.504;8.526;2023-03-31T07:52:35;3.35;;;1.25;;
42700;SDS011;28316;49.504;8.526;2023-03-31T07:55:00;1.77;;;1.35;;
42700;SDS011;28316;49.504;8.526;2023-03-31T07:57:27;2.95;;;1.70;;
42700;SDS011;28316;49.504;8.526;2023-03-31T07:59:53;3.72;;;2.03;;
42700;SDS011;28316;49.504;8.526;2023-03-31T08:02:19;4.63;;;1.90;;
42700;SDS011;28316;49.504;8.526;2023-03-31T08:04:45;4.65;;;1.85;;
42700;SDS011;28316;49.504;8.526;2023-03-31T08:07:12;4.65;;;1.35;;
42700;SDS011;28316;49.504;8.526;2023-03-31T08:09:41;3.97;;;2.15;;
42700;SDS011;28316;49.504;8.526;2023-03-31T08:12:09;2.40;;;1.13;;
42700;SDS011;28316;49.504;8.526;2023-03-31T08:14:37;5.45;;;2.03;;
42700;SDS011;28316;49.504;8.526;2023-03-31T08:17:03;5.93;;;1.98;;
42700;SDS011;28316;49.504;8.526;2023-03-31T08:19:29;9.23;;;2.15;;
42700;SDS011;28316;49.504;8.526;2023-03-31T08:21:55;7.55;;;2.88;;
42700;SDS011;28316;49.504;8.526;2023-03-31T08:24:20;1.58;;;1.17;;
42700;SDS011;28316;49.504;8.526;2023-03-31T08:26:46;4.47;;;1.25;;
42700;SDS011;28316;49.504;8.526;2023-03-31T08:29:12;3.28;;;1.52;;
42700;SDS011;28316;49.504;8.526;2023-03-31T08:31:38;5.97;;;1.42;;
42700;SDS011;28316;49.504;8.526;2023-03-31T08:34:04;3.35;;;1.15;;
42700;SDS011;28316;49.504;8.526;2023-03-31T08:36:31;7.93;;;1.60;;
42700;SDS011;28316;49.504;8.526;2023-03-31T08:38:57;7.03;;;1.13;;
42700;SDS011;28316;49.504;8.526;2023-03-31T08:44:23;4.00;;;1.55;;
42700;SDS011;28316;49.504;8.526;2023-03-31T08:47:00;3.80;;;2.13;;
42700;SDS011;28316;49.504;8.526;2023-03-31T08:49:49;2.67;;;1.42;;
42700;SDS011;28316;49.504;8.526;2023-03-31T08:52:23;2.33;;;1.10;;
42700;SDS011;28316;49.504;8.526;2023-03-31T08:54:58;5.88;;;1.70;;
42700;SDS011;28316;49.504;8.526;2023-03-31T08:57:37;3.80;;;1.50;;
42700;SDS011;28316;49.504;8.526;2023-03-31T09:00:16;3.22;;;1.30;;
42700;SDS011;28316;49.504;8.526;2023-03-31T09:03:04;5.15;;;2.03;;
42700;SDS011;28316;49.504;8.526;2023-03-31T09:05:44;9.15;;;1.90;;
42700;SDS011;28316;49.504;8.526;2023-03-31T09:21:20;4.03;;;1.50;;
42700;SDS011;28316;49.504;8.526;2023-03-31T09:26:37;11.55;;;2.10;;
42700;SDS011;28316;49.504;8.526;2023-03-31T09:29:14;2.72;;;0.80;;
42700;SDS011;28316;49.504;8.526;2023-03-31T09:31:53;6.63;;;1.73;;
42700;SDS011;28316;49.504;8.526;2023-03-31T09:34:27;3.75;;;1.20;;
42700;SDS011;28316;49.504;8.526;2023-03-31T09:36:57;5.32;;;1.23;;
42700;SDS011;28316;49.504;8.526;2023-03-31T09:39:23;9.13;;;1.70;;
42700;SDS011;28316;49.504;8.526;2023-03-31T09:41:49;1.85;;;0.55;;
42700;SDS011;28316;49.504;8.526;2023-03-31T09:44:38;2.10;;;0.60;;
42700;SDS011;28316;49.504;8.526;2023-03-31T09:47:19;2.08;;;0.90;;
42700;SDS011;28316;49.504;8.526;2023-03-31T09:50:07;7.40;;;1.40;;
42700;SDS011;28316;49.504;8.526;2023-03-31T09:52:50;6.07;;;0.80;;
42700;SDS011;28316;49.504;8.526;2023-03-31T09:55:24;1.95;;;1.08;;
42700;SDS011;28316;49.504;8.526;2023-03-31T09:58:01;4.88;;;0.60;;
42700;SDS011;28316;49.504;8.526;2023-03-31T10:00:32;7.35;;;1.48;;
42700;SDS011;28316;49.504;8.526;2023-03-31T10:03:02;2.92;;;0.60;;
42700;SDS011;28316;49.504;8.526;2023-03-31T10:05:32;7.43;;;1.13;;
42700;SDS011;28316;49.504;8.526;2023-03-31T10:08:35;5.20;;;2.17;;
42700;SDS011;28316;49.504;8.526;2023-03-31T10:13:28;5.93;;;1.30;;
42700;SDS011;28316;49.504;8.526;2023-03-31T10:16:06;6.18;;;0.60;;
42700;SDS011;28316;49.504;8.526;2023-03-31T10:18:38;2.83;;;1.08;;
42700;SDS011;28316;49.504;8.526;2023-03-31T10:21:07;2.80;;;1.70;;
42700;SDS011;28316;49.504;8.526;2023-03-31T10:23:51;2.67;;;1.15;;
42700;SDS011;28316;49.504;8.526;2023-03-31T10:26:22;3.08;;;1.35;;
42700;SDS011;28316;49.504;8.526;2023-03-31T10:28:52;2.63;;;0.77;;
42700;SDS011;28316;49.504;8.526;2023-03-31T10:31:19;9.70;;;1.05;;
42700;SDS011;28316;49.504;8.526;2023-03-31T10:33:51;0.77;;;0.57;;
42700;SDS011;28316;49.504;8.526;2023-03-31T10:36:20;4.05;;;1.42;;
42700;SDS011;28316;49.504;8.526;2023-03-31T10:38:53;2.97;;;1.20;;
42700;SDS011;28316;49.504;8.526;2023-03-31T10:41:21;2.05;;;0.63;;
42700;SDS011;28316;49.504;8.526;2023-03-31T10:43:52;2.13;;;0.85;;
42700;SDS011;28316;49.504;8.526;2023-03-31T10:51:50;3.28;;;1.30;;
42700;SDS011;28316;49.504;8.526;2023-03-31T10:54:22;7.05;;;1.15;;
42700;SDS011;28316;49.504;8.526;2023-03-31T10:56:53;4.20;;;1.75;;
42700;SDS011;28316;49.504;8.526;2023-03-31T11:05:27;9.90;;;1.13;;
42700;SDS011;28316;49.504;8.526;2023-03-31T11:11:00;5.50;;;1.00;;
42700;SDS011;28316;49.504;8.526;2023-03-31T11:16:52;4.00;;;0.55;;
42700;SDS011;28316;49.504;8.526;2023-03-31T11:19:38;2.17;;;0.80;;
42700;SDS011;28316;49.504;8.526;2023-03-31T11:28:25;3.30;;;0.82;;
42700;SDS011;28316;49.504;8.526;2023-03-31T11:34:25;5.00;;;0.95;;
42700;SDS011;28316;49.504;8.526;2023-03-31T11:37:09;2.13;;;0.28;;
42700;SDS011;28316;49.504;8.526;2023-03-31T11:40:08;1.85;;;0.43;;
42700;SDS011;28316;49.504;8.526;2023-03-31T11:42:52;10.38;;;1.23;;
42700;SDS011;28316;49.504;8.526;2023-03-31T11:45:32;1.88;;;0.55;;
42700;SDS011;28316;49.504;8.526;2023-03-31T11:48:17;0.98;;;0.73;;
42700;SDS011;28316;49.504;8.526;2023-03-31T11:51:40;1.38;;;0.40;;
42700;SDS011;28316;49.504;8.526;2023-03-31T11:54:40;2.42;;;0.77;;
42700;SDS011;28316;49.504;8.526;2023-03-31T11:57:18;1.92;;;0.43;;
42700;SDS011;28316;49.504;8.526;2023-03-31T12:00:22;3.78;;;0.70;;
42700;SDS011;28316;49.504;8.526;2023-03-31T12:03:13;0.45;;;0.17;;
42700;SDS011;28316;49.504;8.526;2023-03-31T12:05:54;5.25;;;0.57;;
42700;SDS011;28316;49.504;8.526;2023-03-31T12:17:24;2.78;;;0.88;;
42700;SDS011;28316;49.504;8.526;2023-03-31T12:20:00;0.93;;;0.52;;
42700;SDS011;28316;49.504;8.526;2023-03-31T12:25:05;1.88;;;0.57;;
42700;SDS011;28316;49.504;8.526;2023-03-31T12:27:38;1.33;;;0.40;;
42700;SDS011;28316;49.504;8.526;2023-03-31T12:30:09;5.15;;;1.42;;
42700;SDS011;28316;49.504;8.526;2023-03-31T12:32:49;6.50;;;0.52;;
42700;SDS011;28316;49.504;8.526;2023-03-31T12:41:38;0.47;;;0.28;;
42700;SDS011;28316;49.504;8.526;2023-03-31T12:55:35;0.20;;;0.10;;
42700;SDS011;28316;49.504;8.526;2023-03-31T13:06:54;0.15;;;0.08;;
42700;SDS011;28316;49.504;8.526;2023-03-31T13:11:55;7.28;;;1.08;;
42700;SDS011;28316;49.504;8.526;2023-03-31T13:14:26;0.10;;;0.00;;
42700;SDS011;28316;49.504;8.526;2023-03-31T13:17:22;2.88;;;0.30;;
42700;SDS011;28316;49.504;8.526;2023-03-31T13:19:55;8.45;;;0.70;;
42700;SDS011;28316;49.504;8.526;2023-03-31T13:22:45;0.90;;;0.40;;
42700;SDS011;28316;49.504;8.526;2023-03-31T13:27:57;1.17;;;0.52;;
42700;SDS011;28316;49.504;8.526;2023-03-31T13:30:47;0.65;;;0.40;;
42700;SDS011;28316;49.504;8.526;2023-03-31T13:33:32;0.68;;;0.20;;
42700;SDS011;28316;49.504;8.526;2023-03-31T13:39:12;0.52;;;0.28;;
42700;SDS011;28316;49.504;8.526;2023-03-31T13:45:25;1.20;;;0.45;;
42700;SDS011;28316;49.504;8.526;2023-03-31T14:00:06;4.65;;;1.02;;
42700;SDS011;28316;49.504;8.526;2023-03-31T14:05:44;1.40;;;0.40;;
42700;SDS011;28316;49.504;8.526;2023-03-31T14:13:59;0.40;;;0.30;;
42700;SDS011;28316;49.504;8.526;2023-03-31T14:16:36;1.15;;;0.68;;
42700;SDS011;28316;49.504;8.526;2023-03-31T14:19:18;0.55;;;0.38;;
42700;SDS011;28316;49.504;8.526;2023-03-31T14:22:31;0.60;;;0.25;;
42700;SDS011;28316;49.504;8.526;2023-03-31T14:28:40;2.23;;;0.53;;
42700;SDS011;28316;49.504;8.526;2023-03-31T14:31:25;3.80;;;0.82;;
42700;SDS011;28316;49.504;8.526;2023-03-31T14:39:51;0.40;;;0.15;;
42700;SDS011;28316;49.504;8.526;2023-03-31T14:42:21;0.10;;;0.10;;
42700;SDS011;28316;49.504;8.526;2023-03-31T14:45:06;3.33;;;0.70;;
42700;SDS011;28316;49.504;8.526;2023-03-31T14:47:52;2.92;;;0.75;;
42700;SDS011;28316;49.504;8.526;2023-03-31T14:50:35;1.90;;;0.70;;
42700;SDS011;28316;49.504;8.526;2023-03-31T14:53:01;1.50;;;0.50;;
42700;SDS011;28316;49.504;8.526;2023-03-31T14:55:29;1.33;;;0.40;;
42700;SDS011;28316;49.504;8.526;2023-03-31T14:57:58;1.17;;;0.43;;
42700;SDS011;28316;49.504;8.526;2023-03-31T15:00:26;2.22;;;0.40;;
42700;SDS011;28316;49.504;8.526;2023-03-31T15:02:56;0.88;;;0.60;;
42700;SDS011;28316;49.504;8.526;2023-03-31T15:05:35;3.45;;;0.70;;
42700;SDS011;28316;49.504;8.526;2023-03-31T15:08:02;7.95;;;0.40;;
42700;SDS011;28316;49.504;8.526;2023-03-31T15:10:52;3.22;;;0.38;;
42700;SDS011;28316;49.504;8.526;2023-03-31T15:13:31;1.63;;;1.00;;
42700;SDS011;28316;49.504;8.526;2023-03-31T15:15:58;1.10;;;0.30;;
42700;SDS011;28316;49.504;8.526;2023-03-31T15:18:42;0.10;;;0.03;;
42700;SDS011;28316;49.504;8.526;2023-03-31T15:21:09;1.65;;;0.20;;
42700;SDS011;28316;49.504;8.526;2023-03-31T15:23:54;1.48;;;0.45;;
42700;SDS011;28316;49.504;8.526;2023-03-31T15:28:52;1.17;;;0.38;;
42700;SDS011;28316;49.504;8.526;2023-03-31T15:31:24;6.80;;;0.63;;
42700;SDS011;28316;49.504;8.526;2023-03-31T15:33:51;0.95;;;0.50;;
42700;SDS011;28316;49.504;8.526;2023-03-31T15:36:17;2.05;;;0.55;;
42700;SDS011;28316;49.504;8.526;2023-03-31T15:38:45;4.72;;;0.85;;
42700;SDS011;28316;49.504;8.526;2023-03-31T15:41:18;2.28;;;0.43;;
42700;SDS011;28316;49.504;8.526;2023-03-31T15:43:46;1.50;;;0.50;;
42700;SDS011;28316;49.504;8.526;2023-03-31T15:49:17;1.48;;;0.38;;
42700;SDS011;28316;49.504;8.526;2023-03-31T15:51:46;1.25;;;0.68;;
42700;SDS011;28316;49.504;8.526;2023-03-31T15:57:04;1.17;;;0.47;;
42700;SDS011;28316;49.504;8.526;2023-03-31T16:02:19;1.50;;;0.40;;
42700;SDS011;28316;49.504;8.526;2023-03-31T16:04:49;1.08;;;0.45;;
42700;SDS011;28316;49.504;8.526;2023-03-31T16:07:26;3.05;;;0.40;;
42700;SDS011;28316;49.504;8.526;2023-03-31T16:12:36;1.10;;;0.25;;
42700;SDS011;28316;49.504;8.526;2023-03-31T16:15:15;1.48;;;0.63;;
42700;SDS011;28316;49.504;8.526;2023-03-31T16:20:38;1.67;;;0.20;;
42700;SDS011;28316;49.504;8.526;2023-03-31T16:23:13;2.08;;;0.77;;
42700;SDS011;28316;49.504;8.526;2023-03-31T16:25:42;8.57;;;0.82;;
42700;SDS011;28316;49.504;8.526;2023-03-31T16:28:13;3.30;;;0.75;;
42700;SDS011;28316;49.504;8.526;2023-03-31T16:30:51;2.10;;;0.63;;
42700;SDS011;28316;49.504;8.526;2023-03-31T16:33:19;1.20;;;0.47;;
42700;SDS011;28316;49.504;8.526;2023-03-31T16:35:50;1.65;;;0.57;;
42700;SDS011;28316;49.504;8.526;2023-03-31T16:38:24;5.17;;;1.57;;
42700;SDS011;28316;49.504;8.526;2023-03-31T16:40:52;5.00;;;1.35;;
42700;SDS011;28316;49.504;8.526;2023-03-31T16:43:21;2.00;;;0.88;;
42700;SDS011;28316;49.504;8.526;2023-03-31T16:45:50;1.95;;;1.10;;
42700;SDS011;28316;49.504;8.526;2023-03-31T16:48:18;4.80;;;0.68;;
42700;SDS011;28316;49.504;8.526;2023-03-31T16:50:48;2.95;;;0.93;;
42700;SDS011;28316;49.504;8.526;2023-03-31T16:53:16;0.88;;;0.30;;
42700;SDS011;28316;49.504;8.526;2023-03-31T16:55:51;1.23;;;0.43;;
42700;SDS011;28316;49.504;8.526;2023-03-31T16:58:18;2.92;;;0.63;;
42700;SDS011;28316;49.504;8.526;2023-03-31T17:00:45;4.38;;;0.55;;
42700;SDS011;28316;49.504;8.526;2023-03-31T17:03:11;6.25;;;0.70;;
42700;SDS011;28316;49.504;8.526;2023-03-31T17:05:42;4.13;;;0.52;;
42700;SDS011;28316;49.504;8.526;2023-03-31T17:08:11;0.47;;;0.25;;
42700;SDS011;28316;49.504;8.526;2023-03-31T17:10:38;2.65;;;0.60;;
42700;SDS011;28316;49.504;8.526;2023-03-31T17:13:05;1.60;;;0.73;;
42700;SDS011;28316;49.504;8.526;2023-03-31T17:15:32;0.85;;;0.28;;
42700;SDS011;28316;49.504;8.526;2023-03-31T17:18:00;0.70;;;0.40;;
42700;SDS011;28316;49.504;8.526;2023-03-31T17:20:27;0.32;;;0.20;;
42700;SDS011;28316;49.504;8.526;2023-03-31T17:22:54;0.95;;;0.60;;
42700;SDS011;28316;49.504;8.526;2023-03-31T17:25:20;0.52;;;0.35;;
42700;SDS011;28316;49.504;8.526;2023-03-31T17:27:46;2.20;;;0.43;;
42700;SDS011;28316;49.504;8.526;2023-03-31T17:30:13;0.55;;;0.17;;
42700;SDS011;28316;49.504;8.526;2023-03-31T17:32:39;1.38;;;0.47;;
42700;SDS011;28316;49.504;8.526;2023-03-31T17:35:05;1.33;;;0.43;;
42700;SDS011;28316;49.504;8.526;2023-03-31T17:37:32;0.60;;;0.40;;
42700;SDS011;28316;49.504;8.526;2023-03-31T17:39:58;0.65;;;0.20;;
42700;SDS011;28316;49.504;8.526;2023-03-31T17:42:24;0.22;;;0.20;;
42700;SDS011;28316;49.504;8.526;2023-03-31T17:44:50;0.20;;;0.20;;
42700;SDS011;28316;49.504;8.526;2023-03-31T17:47:17;0.52;;;0.28;;
42700;SDS011;28316;49.504;8.526;2023-03-31T17:49:47;0.65;;;0.60;;
42700;SDS011;28316;49.504;8.526;2023-03-31T17:52:13;0.52;;;0.25;;
42700;SDS011;28316;49.504;8.526;2023-03-31T17:54:39;0.40;;;0.10;;
42700;SDS011;28316;49.504;8.526;2023-03-31T17:57:05;1.23;;;0.57;;
42700;SDS011;28316;49.504;8.526;2023-03-31T17:59:31;1.08;;;0.40;;
42700;SDS011;28316;49.504;8.526;2023-03-31T18:01:57;0.28;;;0.10;;
42700;SDS011;28316;49.504;8.526;2023-03-31T18:04:23;1.35;;;0.50;;
42700;SDS011;28316;49.504;8.526;2023-03-31T18:06:49;2.92;;;0.10;;
42700;SDS011;28316;49.504;8.526;2023-03-31T18:09:15;0.10;;;0.10;;
42700;SDS011;28316;49.504;8.526;2023-03-31T18:11:41;0.30;;;0.20;;
42700;SDS011;28316;49.504;8.526;2023-03-31T18:14:07;2.38;;;0.35;;
42700;SDS011;28316;49.504;8.526;2023-03-31T18:16:33;3.33;;;0.47;;
42700;SDS011;28316;49.504;8.526;2023-03-31T18:18:59;0.45;;;0.30;;
42700;SDS011;28316;49.504;8.526;2023-03-31T18:21:25;1.38;;;0.40;;
42700;SDS011;28316;49.504;8.526;2023-03-31T18:23:51;1.17;;;0.60;;